sensor_id;sensor_type;location;lat;lon;timestamp;P1;durP1;ratioP1;P2;durP2;ratioP2
50309;SDS011;36207;51.850;21.698;2023-04-10T00:00:16;24.40;;;14.20;;
50309;SDS011;36207;51.850;21.698;2023-04-10T00:03:03;24.10;;;15.50;;
50309;SDS011;36207;51.850;21.698;2023-04-10T00:05:29;23.00;;;14.40;;
50309;SDS011;36207;51.850;21.698;2023-04-10T00:07:55;21.80;;;14.20;;
50309;SDS011;36207;51.850;21.698;2023-04-10T00:10:21;22.00;;;14.20;;
50309;SDS011;36207;51.850;21.698;2023-04-10T00:12:47;21.60;;;14.20;;
50309;SDS011;36207;51.850;21.698;2023-04-10T00:15:13;20.40;;;13.10;;
50309;SDS011;36207;51.850;21.698;2023-04-10T00:17:39;21.60;;;13.90;;
50309;SDS011;36207;51.850;21.698;2023-04-10T00:20:05;21.10;;;13.90;;
50309;SDS011;36207;51.850;21.698;2023-04-10T00:22:31;22.50;;;14.10;;
50309;SDS011;36207;51.850;21.698;2023-04-10T00:24:57;20.10;;;13.60;;
50309;SDS011;36207;51.850;21.698;2023-04-10T00:27:23;23.40;;;14.20;;
50309;SDS011;36207;51.850;21.698;2023-04-10T00:29:49;21.30;;;13.60;;
50309;SDS011;36207;51.850;21.698;2023-04-10T00:32:15;22.40;;;13.30;;
50309;SDS011;36207;51.850;21.698;2023-04-10T00:34:41;20.90;;;13.60;;
50309;SDS011;36207;51.850;21.698;2023-04-10T00:37:07;18.30;;;12.90;;
50309;SDS011;36207;51.850;21.698;2023-04-10T00:39:32;21.40;;;13.60;;
50309;SDS011;36207;51.850;21.698;2023-04-10T00:41:58;18.10;;;12.00;;
50309;SDS011;36207;51.850;21.698;2023-04-10T00:44:25;19.00;;;12.80;;
50309;SDS011;36207;51.850;21.698;2023-04-10T00:46:51;20.00;;;13.00;;
50309;SDS011;36207;51.850;21.698;2023-04-10T00:49:17;21.30;;;13.50;;
50309;SDS011;36207;51.850;21.698;2023-04-10T00:51:43;22.40;;;13.90;;
50309;SDS011;36207;51.850;21.698;2023-04-10T00:54:12;21.10;;;13.40;;
50309;SDS011;36207;51.850;21.698;2023-04-10T00:56:38;23.00;;;13.10;;
50309;SDS011;36207;51.850;21.698;2023-04-10T00:59:04;17.70;;;11.90;;
50309;SDS011;36207;51.850;21.698;2023-04-10T01:01:30;20.60;;;12.80;;
50309;SDS011;36207;51.850;21.698;2023-04-10T01:03:56;17.70;;;11.60;;
50309;SDS011;36207;51.850;21.698;2023-04-10T01:06:26;18.40;;;12.50;;
50309;SDS011;36207;51.850;21.698;2023-04-10T01:17:00;17.40;;;12.00;;
50309;SDS011;36207;51.850;21.698;2023-04-10T01:22:33;17.40;;;12.10;;
50309;SDS011;36207;51.850;21.698;2023-04-10T01:25:16;19.70;;;11.70;;
50309;SDS011;36207;51.850;21.698;2023-04-10T01:30:23;18.90;;;12.60;;
50309;SDS011;36207;51.850;21.698;2023-04-10T01:32:50;15.50;;;11.20;;
50309;SDS011;36207;51.850;21.698;2023-04-10T01:35:23;17.50;;;10.60;;
50309;SDS011;36207;51.850;21.698;2023-04-10T01:37:53;16.60;;;11.30;;
50309;SDS011;36207;51.850;21.698;2023-04-10T01:40:20;17.70;;;12.20;;
50309;SDS011;36207;51.850;21.698;2023-04-10T01:42:51;19.30;;;11.80;;
50309;SDS011;36207;51.850;21.698;2023-04-10T01:45:20;18.00;;;11.40;;
50309;SDS011;36207;51.850;21.698;2023-04-10T01:47:50;17.90;;;11.50;;
50309;SDS011;36207;51.850;21.698;2023-04-10T01:50:16;17.60;;;11.90;;
50309;SDS011;36207;51.850;21.698;2023-04-10T01:52:44;19.30;;;12.30;;
50309;SDS011;36207;51.850;21.698;2023-04-10T01:55:12;18.90;;;12.10;;
50309;SDS011;36207;51.850;21.698;2023-04-10T01:57:39;18.00;;;11.60;;
50309;SDS011;36207;51.850;21.698;2023-04-10T02:00:06;15.30;;;10.30;;
50309;SDS011;36207;51.850;21.698;2023-04-10T02:02:33;17.40;;;11.80;;
50309;SDS011;36207;51.850;21.698;2023-04-10T02:04:59;17.70;;;11.60;;
50309;SDS011;36207;51.850;21.698;2023-04-10T02:07:35;16.30;;;10.60;;
50309;SDS011;36207;51.850;21.698;2023-04-10T02:10:12;16.30;;;11.40;;
50309;SDS011;36207;51.850;21.698;2023-04-10T02:12:51;17.30;;;11.40;;
50309;SDS011;36207;51.850;21.698;2023-04-10T02:15:21;16.90;;;10.30;;
50309;SDS011;36207;51.850;21.698;2023-04-10T02:17:49;16.60;;;10.20;;
50309;SDS011;36207;51.850;21.698;2023-04-10T02:20:17;14.60;;;10.60;;
50309;SDS011;36207;51.850;21.698;2023-04-10T02:22:43;15.50;;;10.80;;
50309;SDS011;36207;51.850;21.698;2023-04-10T02:25:13;14.10;;;10.30;;
50309;SDS011;36207;51.850;21.698;2023-04-10T02:27:40;14.70;;;10.20;;
50309;SDS011;36207;51.850;21.698;2023-04-10T02:30:06;15.70;;;10.50;;
50309;SDS011;36207;51.850;21.698;2023-04-10T02:32:33;16.50;;;11.50;;
50309;SDS011;36207;51.850;21.698;2023-04-10T02:34:59;17.60;;;11.60;;
50309;SDS011;36207;51.850;21.698;2023-04-10T02:37:26;15.10;;;10.30;;
50309;SDS011;36207;51.850;21.698;2023-04-10T02:39:52;14.30;;;10.10;;
50309;SDS011;36207;51.850;21.698;2023-04-10T02:42:19;14.80;;;10.50;;
50309;SDS011;36207;51.850;21.698;2023-04-10T02:44:46;14.30;;;10.10;;
50309;SDS011;36207;51.850;21.698;2023-04-10T02:47:12;13.90;;;9.60;;
50309;SDS011;36207;51.850;21.698;2023-04-10T02:49:38;15.90;;;11.00;;
50309;SDS011;36207;51.850;21.698;2023-04-10T02:52:04;17.60;;;11.70;;
50309;SDS011;36207;51.850;21.698;2023-04-10T02:54:30;15.90;;;11.10;;
50309;SDS011;36207;51.850;21.698;2023-04-10T02:56:57;15.30;;;11.10;;
50309;SDS011;36207;51.850;21.698;2023-04-10T02:59:24;14.20;;;10.10;;
50309;SDS011;36207;51.850;21.698;2023-04-10T03:01:50;18.30;;;10.80;;
50309;SDS011;36207;51.850;21.698;2023-04-10T03:04:19;20.10;;;12.20;;
50309;SDS011;36207;51.850;21.698;2023-04-10T03:06:48;18.30;;;11.30;;
50309;SDS011;36207;51.850;21.698;2023-04-10T03:09:14;14.20;;;9.70;;
50309;SDS011;36207;51.850;21.698;2023-04-10T03:11:40;14.50;;;9.20;;
50309;SDS011;36207;51.850;21.698;2023-04-10T03:14:06;16.70;;;11.10;;
50309;SDS011;36207;51.850;21.698;2023-04-10T03:16:37;16.70;;;10.60;;
50309;SDS011;36207;51.850;21.698;2023-04-10T03:19:03;15.40;;;10.10;;
50309;SDS011;36207;51.850;21.698;2023-04-10T03:21:29;14.30;;;9.80;;
50309;SDS011;36207;51.850;21.698;2023-04-10T03:23:55;14.40;;;9.70;;
50309;SDS011;36207;51.850;21.698;2023-04-10T03:26:21;15.60;;;10.00;;
50309;SDS011;36207;51.850;21.698;2023-04-10T03:28:48;18.00;;;11.10;;
50309;SDS011;36207;51.850;21.698;2023-04-10T03:31:14;16.60;;;10.70;;
50309;SDS011;36207;51.850;21.698;2023-04-10T03:33:40;19.20;;;11.90;;
50309;SDS011;36207;51.850;21.698;2023-04-10T03:36:06;21.00;;;12.50;;
50309;SDS011;36207;51.850;21.698;2023-04-10T03:38:32;19.70;;;11.70;;
50309;SDS011;36207;51.850;21.698;2023-04-10T03:40:58;17.70;;;11.50;;
50309;SDS011;36207;51.850;21.698;2023-04-10T03:43:24;19.80;;;10.80;;
50309;SDS011;36207;51.850;21.698;2023-04-10T03:45:50;13.70;;;9.50;;
50309;SDS011;36207;51.850;21.698;2023-04-10T03:48:16;17.30;;;11.10;;
50309;SDS011;36207;51.850;21.698;2023-04-10T03:50:42;19.70;;;11.10;;
50309;SDS011;36207;51.850;21.698;2023-04-10T03:53:08;20.80;;;11.40;;
50309;SDS011;36207;51.850;21.698;2023-04-10T03:55:35;17.40;;;11.30;;
50309;SDS011;36207;51.850;21.698;2023-04-10T03:58:03;17.40;;;10.60;;
50309;SDS011;36207;51.850;21.698;2023-04-10T04:00:30;15.70;;;10.30;;
50309;SDS011;36207;51.850;21.698;2023-04-10T04:02:56;17.80;;;11.20;;
50309;SDS011;36207;51.850;21.698;2023-04-10T04:05:23;17.00;;;10.40;;
50309;SDS011;36207;51.850;21.698;2023-04-10T04:07:49;17.10;;;11.60;;
50309;SDS011;36207;51.850;21.698;2023-04-10T04:10:15;19.80;;;11.90;;
50309;SDS011;36207;51.850;21.698;2023-04-10T04:12:41;19.30;;;12.50;;
50309;SDS011;36207;51.850;21.698;2023-04-10T04:15:11;16.90;;;12.00;;
50309;SDS011;36207;51.850;21.698;2023-04-10T04:17:37;19.00;;;12.80;;
50309;SDS011;36207;51.850;21.698;2023-04-10T04:20:03;21.70;;;14.40;;
50309;SDS011;36207;51.850;21.698;2023-04-10T04:22:30;20.20;;;13.20;;
50309;SDS011;36207;51.850;21.698;2023-04-10T04:25:02;20.10;;;12.60;;
50309;SDS011;36207;51.850;21.698;2023-04-10T04:27:36;21.00;;;12.70;;
50309;SDS011;36207;51.850;21.698;2023-04-10T04:30:03;19.40;;;11.80;;
50309;SDS011;36207;51.850;21.698;2023-04-10T04:32:30;15.30;;;10.70;;
50309;SDS011;36207;51.850;21.698;2023-04-10T04:34:56;14.70;;;9.80;;
50309;SDS011;36207;51.850;21.698;2023-04-10T04:37:22;24.60;;;12.60;;
50309;SDS011;36207;51.850;21.698;2023-04-10T04:39:48;22.90;;;13.20;;
50309;SDS011;36207;51.850;21.698;2023-04-10T04:42:14;25.70;;;14.70;;
50309;SDS011;36207;51.850;21.698;2023-04-10T04:44:40;22.90;;;14.20;;
50309;SDS011;36207;51.850;21.698;2023-04-10T04:47:06;21.00;;;14.20;;
50309;SDS011;36207;51.850;21.698;2023-04-10T04:49:32;23.70;;;13.80;;
50309;SDS011;36207;51.850;21.698;2023-04-10T04:51:58;29.40;;;14.70;;
50309;SDS011;36207;51.850;21.698;2023-04-10T04:54:24;36.00;;;16.10;;
50309;SDS011;36207;51.850;21.698;2023-04-10T04:56:50;46.10;;;14.30;;
50309;SDS011;36207;51.850;21.698;2023-04-10T04:59:16;23.30;;;13.60;;
50309;SDS011;36207;51.850;21.698;2023-04-10T05:01:42;19.20;;;12.70;;
50309;SDS011;36207;51.850;21.698;2023-04-10T05:04:08;18.20;;;12.10;;
50309;SDS011;36207;51.850;21.698;2023-04-10T05:06:34;17.10;;;11.70;;
50309;SDS011;36207;51.850;21.698;2023-04-10T05:09:00;16.90;;;11.50;;
50309;SDS011;36207;51.850;21.698;2023-04-10T05:11:26;16.70;;;12.40;;
50309;SDS011;36207;51.850;21.698;2023-04-10T05:13:52;17.30;;;12.00;;
50309;SDS011;36207;51.850;21.698;2023-04-10T05:16:18;17.60;;;12.00;;
50309;SDS011;36207;51.850;21.698;2023-04-10T05:18:45;15.80;;;11.10;;
50309;SDS011;36207;51.850;21.698;2023-04-10T05:21:11;16.10;;;12.00;;
50309;SDS011;36207;51.850;21.698;2023-04-10T05:23:37;17.40;;;12.30;;
50309;SDS011;36207;51.850;21.698;2023-04-10T05:26:05;17.20;;;12.10;;
50309;SDS011;36207;51.850;21.698;2023-04-10T05:28:31;17.00;;;12.00;;
50309;SDS011;36207;51.850;21.698;2023-04-10T05:30:57;17.50;;;11.40;;
50309;SDS011;36207;51.850;21.698;2023-04-10T05:33:23;16.60;;;11.20;;
50309;SDS011;36207;51.850;21.698;2023-04-10T05:35:52;16.00;;;11.60;;
50309;SDS011;36207;51.850;21.698;2023-04-10T05:38:18;17.90;;;12.10;;
50309;SDS011;36207;51.850;21.698;2023-04-10T05:40:44;16.90;;;12.20;;
50309;SDS011;36207;51.850;21.698;2023-04-10T05:43:10;16.70;;;12.10;;
50309;SDS011;36207;51.850;21.698;2023-04-10T05:45:36;16.80;;;11.70;;
50309;SDS011;36207;51.850;21.698;2023-04-10T05:48:02;17.20;;;12.50;;
50309;SDS011;36207;51.850;21.698;2023-04-10T05:50:28;16.30;;;12.30;;
50309;SDS011;36207;51.850;21.698;2023-04-10T05:52:54;17.40;;;12.50;;
50309;SDS011;36207;51.850;21.698;2023-04-10T05:55:20;17.40;;;12.00;;
50309;SDS011;36207;51.850;21.698;2023-04-10T05:57:46;14.90;;;11.10;;
50309;SDS011;36207;51.850;21.698;2023-04-10T06:00:12;16.40;;;11.80;;
50309;SDS011;36207;51.850;21.698;2023-04-10T06:02:40;17.70;;;12.30;;
50309;SDS011;36207;51.850;21.698;2023-04-10T06:05:07;24.30;;;13.90;;
50309;SDS011;36207;51.850;21.698;2023-04-10T06:07:33;21.70;;;13.40;;
50309;SDS011;36207;51.850;21.698;2023-04-10T06:09:59;15.60;;;10.60;;
50309;SDS011;36207;51.850;21.698;2023-04-10T06:12:25;12.50;;;9.60;;
50309;SDS011;36207;51.850;21.698;2023-04-10T06:14:51;13.80;;;9.90;;
50309;SDS011;36207;51.850;21.698;2023-04-10T06:17:16;13.80;;;9.70;;
50309;SDS011;36207;51.850;21.698;2023-04-10T06:19:45;12.60;;;9.20;;
50309;SDS011;36207;51.850;21.698;2023-04-10T06:22:12;11.30;;;8.80;;
50309;SDS011;36207;51.850;21.698;2023-04-10T06:24:37;10.70;;;8.60;;
50309;SDS011;36207;51.850;21.698;2023-04-10T06:27:03;15.50;;;8.40;;
50309;SDS011;36207;51.850;21.698;2023-04-10T06:29:30;13.40;;;8.40;;
50309;SDS011;36207;51.850;21.698;2023-04-10T06:31:55;13.40;;;8.10;;
50309;SDS011;36207;51.850;21.698;2023-04-10T06:34:21;10.80;;;8.00;;
50309;SDS011;36207;51.850;21.698;2023-04-10T06:36:47;10.40;;;7.80;;
50309;SDS011;36207;51.850;21.698;2023-04-10T06:39:13;10.30;;;7.90;;
50309;SDS011;36207;51.850;21.698;2023-04-10T06:41:42;9.50;;;7.50;;
50309;SDS011;36207;51.850;21.698;2023-04-10T06:44:08;9.40;;;7.30;;
50309;SDS011;36207;51.850;21.698;2023-04-10T06:46:34;9.90;;;7.80;;
50309;SDS011;36207;51.850;21.698;2023-04-10T06:49:00;11.40;;;7.90;;
50309;SDS011;36207;51.850;21.698;2023-04-10T06:51:26;10.40;;;7.40;;
50309;SDS011;36207;51.850;21.698;2023-04-10T06:53:52;9.70;;;7.50;;
50309;SDS011;36207;51.850;21.698;2023-04-10T06:56:18;10.20;;;7.10;;
50309;SDS011;36207;51.850;21.698;2023-04-10T06:58:44;10.30;;;6.80;;
50309;SDS011;36207;51.850;21.698;2023-04-10T07:01:10;10.10;;;7.40;;
50309;SDS011;36207;51.850;21.698;2023-04-10T07:03:38;8.60;;;6.50;;
50309;SDS011;36207;51.850;21.698;2023-04-10T07:06:04;8.90;;;6.40;;
50309;SDS011;36207;51.850;21.698;2023-04-10T07:08:32;10.20;;;7.30;;
50309;SDS011;36207;51.850;21.698;2023-04-10T07:10:58;8.80;;;7.00;;
50309;SDS011;36207;51.850;21.698;2023-04-10T07:13:24;10.20;;;6.80;;
50309;SDS011;36207;51.850;21.698;2023-04-10T07:15:50;7.60;;;6.00;;
50309;SDS011;36207;51.850;21.698;2023-04-10T07:18:16;10.30;;;6.60;;
50309;SDS011;36207;51.850;21.698;2023-04-10T07:20:41;9.60;;;5.80;;
50309;SDS011;36207;51.850;21.698;2023-04-10T07:23:08;8.50;;;5.90;;
50309;SDS011;36207;51.850;21.698;2023-04-10T07:25:33;11.10;;;5.90;;
50309;SDS011;36207;51.850;21.698;2023-04-10T07:27:59;9.20;;;5.80;;
50309;SDS011;36207;51.850;21.698;2023-04-10T07:30:26;8.20;;;5.80;;
50309;SDS011;36207;51.850;21.698;2023-04-10T07:32:51;8.00;;;5.60;;
50309;SDS011;36207;51.850;21.698;2023-04-10T07:35:17;8.70;;;5.60;;
50309;SDS011;36207;51.850;21.698;2023-04-10T07:37:45;9.10;;;5.80;;
50309;SDS011;36207;51.850;21.698;2023-04-10T07:40:14;8.80;;;5.40;;
50309;SDS011;36207;51.850;21.698;2023-04-10T07:42:40;7.00;;;5.10;;
50309;SDS011;36207;51.850;21.698;2023-04-10T07:45:06;8.10;;;4.90;;
50309;SDS011;36207;51.850;21.698;2023-04-10T07:47:33;9.80;;;5.00;;
50309;SDS011;36207;51.850;21.698;2023-04-10T07:49:59;8.40;;;5.20;;
50309;SDS011;36207;51.850;21.698;2023-04-10T07:52:25;9.90;;;5.60;;
50309;SDS011;36207;51.850;21.698;2023-04-10T07:54:51;7.60;;;4.90;;
50309;SDS011;36207;51.850;21.698;2023-04-10T07:57:16;8.40;;;4.80;;
50309;SDS011;36207;51.850;21.698;2023-04-10T07:59:45;7.30;;;4.90;;
50309;SDS011;36207;51.850;21.698;2023-04-10T08:02:12;8.20;;;5.00;;
50309;SDS011;36207;51.850;21.698;2023-04-10T08:04:37;9.80;;;4.90;;
50309;SDS011;36207;51.850;21.698;2023-04-10T08:07:03;8.30;;;4.70;;
50309;SDS011;36207;51.850;21.698;2023-04-10T08:09:29;6.50;;;4.80;;
50309;SDS011;36207;51.850;21.698;2023-04-10T08:11:55;9.50;;;5.10;;
50309;SDS011;36207;51.850;21.698;2023-04-10T08:14:21;8.70;;;5.20;;
50309;SDS011;36207;51.850;21.698;2023-04-10T08:16:48;10.00;;;5.00;;
50309;SDS011;36207;51.850;21.698;2023-04-10T08:19:14;9.70;;;5.10;;
50309;SDS011;36207;51.850;21.698;2023-04-10T08:21:40;9.70;;;4.60;;
50309;SDS011;36207;51.850;21.698;2023-04-10T08:24:06;6.80;;;4.70;;
50309;SDS011;36207;51.850;21.698;2023-04-10T08:26:32;8.20;;;4.50;;
50309;SDS011;36207;51.850;21.698;2023-04-10T08:28:58;6.70;;;4.70;;
50309;SDS011;36207;51.850;21.698;2023-04-10T08:31:25;7.40;;;4.40;;
50309;SDS011;36207;51.850;21.698;2023-04-10T08:33:52;7.80;;;4.50;;
50309;SDS011;36207;51.850;21.698;2023-04-10T08:36:19;8.50;;;4.30;;
50309;SDS011;36207;51.850;21.698;2023-04-10T08:38:45;6.00;;;4.10;;
50309;SDS011;36207;51.850;21.698;2023-04-10T08:41:12;8.50;;;4.60;;
50309;SDS011;36207;51.850;21.698;2023-04-10T08:43:39;9.20;;;4.50;;
50309;SDS011;36207;51.850;21.698;2023-04-10T08:46:06;5.80;;;3.90;;
50309;SDS011;36207;51.850;21.698;2023-04-10T08:48:45;7.70;;;4.10;;
50309;SDS011;36207;51.850;21.698;2023-04-10T08:52:00;7.20;;;4.70;;
50309;SDS011;36207;51.850;21.698;2023-04-10T08:54:27;9.30;;;4.20;;
50309;SDS011;36207;51.850;21.698;2023-04-10T08:56:57;6.30;;;4.10;;
50309;SDS011;36207;51.850;21.698;2023-04-10T08:59:26;8.30;;;4.10;;
50309;SDS011;36207;51.850;21.698;2023-04-10T09:01:53;9.90;;;4.20;;
50309;SDS011;36207;51.850;21.698;2023-04-10T09:04:25;5.70;;;4.00;;
50309;SDS011;36207;51.850;21.698;2023-04-10T09:06:52;8.90;;;4.20;;
50309;SDS011;36207;51.850;21.698;2023-04-10T09:09:18;6.10;;;4.00;;
50309;SDS011;36207;51.850;21.698;2023-04-10T09:12:02;5.60;;;3.90;;
50309;SDS011;36207;51.850;21.698;2023-04-10T09:14:29;7.40;;;4.20;;
50309;SDS011;36207;51.850;21.698;2023-04-10T09:19:43;7.00;;;4.00;;
50309;SDS011;36207;51.850;21.698;2023-04-10T09:22:13;6.40;;;4.10;;
50309;SDS011;36207;51.850;21.698;2023-04-10T09:24:40;6.70;;;3.90;;
50309;SDS011;36207;51.850;21.698;2023-04-10T09:27:08;5.10;;;3.70;;
50309;SDS011;36207;51.850;21.698;2023-04-10T09:29:45;7.20;;;4.10;;
50309;SDS011;36207;51.850;21.698;2023-04-10T09:35:15;7.80;;;4.10;;
50309;SDS011;36207;51.850;21.698;2023-04-10T09:37:43;6.80;;;3.80;;
50309;SDS011;36207;51.850;21.698;2023-04-10T09:40:23;7.80;;;4.30;;
50309;SDS011;36207;51.850;21.698;2023-04-10T09:42:50;6.30;;;3.60;;
50309;SDS011;36207;51.850;21.698;2023-04-10T09:45:16;5.50;;;3.70;;
50309;SDS011;36207;51.850;21.698;2023-04-10T09:48:00;7.70;;;3.70;;
50309;SDS011;36207;51.850;21.698;2023-04-10T09:50:35;6.20;;;4.10;;
50309;SDS011;36207;51.850;21.698;2023-04-10T09:53:02;9.50;;;4.00;;
50309;SDS011;36207;51.850;21.698;2023-04-10T09:55:28;6.50;;;3.80;;
50309;SDS011;36207;51.850;21.698;2023-04-10T09:57:54;8.30;;;3.70;;
50309;SDS011;36207;51.850;21.698;2023-04-10T10:00:23;6.50;;;3.60;;
50309;SDS011;36207;51.850;21.698;2023-04-10T10:02:49;6.30;;;3.80;;
50309;SDS011;36207;51.850;21.698;2023-04-10T10:05:16;7.40;;;3.70;;
50309;SDS011;36207;51.850;21.698;2023-04-10T10:07:43;6.50;;;3.80;;
50309;SDS011;36207;51.850;21.698;2023-04-10T10:10:09;5.10;;;3.70;;
50309;SDS011;36207;51.850;21.698;2023-04-10T10:12:42;6.80;;;3.60;;
50309;SDS011;36207;51.850;21.698;2023-04-10T10:21:58;6.00;;;3.50;;
50309;SDS011;36207;51.850;21.698;2023-04-10T10:24:25;8.50;;;4.00;;
50309;SDS011;36207;51.850;21.698;2023-04-10T10:26:53;6.50;;;3.70;;
50309;SDS011;36207;51.850;21.698;2023-04-10T10:29:22;7.70;;;3.50;;
50309;SDS011;36207;51.850;21.698;2023-04-10T10:31:49;5.40;;;3.40;;
50309;SDS011;36207;51.850;21.698;2023-04-10T10:34:16;6.60;;;3.80;;
50309;SDS011;36207;51.850;21.698;2023-04-10T10:36:43;7.80;;;3.80;;
50309;SDS011;36207;51.850;21.698;2023-04-10T10:41:37;5.40;;;3.60;;
50309;SDS011;36207;51.850;21.698;2023-04-10T10:44:13;7.60;;;3.70;;
50309;SDS011;36207;51.850;21.698;2023-04-10T10:46:48;9.30;;;3.90;;
50309;SDS011;36207;51.850;21.698;2023-04-10T10:49:17;8.40;;;3.60;;
50309;SDS011;36207;51.850;21.698;2023-04-10T10:51:47;9.20;;;3.90;;
50309;SDS011;36207;51.850;21.698;2023-04-10T10:56:54;9.00;;;4.00;;
50309;SDS011;36207;51.850;21.698;2023-04-10T11:04:41;6.30;;;3.80;;
50309;SDS011;36207;51.850;21.698;2023-04-10T11:07:09;6.80;;;3.90;;
50309;SDS011;36207;51.850;21.698;2023-04-10T11:09:42;5.20;;;3.80;;
50309;SDS011;36207;51.850;21.698;2023-04-10T11:12:11;7.50;;;4.30;;
50309;SDS011;36207;51.850;21.698;2023-04-10T11:14:36;8.60;;;4.10;;
50309;SDS011;36207;51.850;21.698;2023-04-10T11:17:04;6.80;;;4.00;;
50309;SDS011;36207;51.850;21.698;2023-04-10T11:19:31;6.90;;;4.00;;
50309;SDS011;36207;51.850;21.698;2023-04-10T11:22:23;8.90;;;4.30;;
50309;SDS011;36207;51.850;21.698;2023-04-10T11:24:53;8.00;;;4.30;;
50309;SDS011;36207;51.850;21.698;2023-04-10T11:27:39;9.80;;;4.40;;
50309;SDS011;36207;51.850;21.698;2023-04-10T11:33:00;8.70;;;4.20;;
50309;SDS011;36207;51.850;21.698;2023-04-10T11:35:28;11.00;;;4.40;;
50309;SDS011;36207;51.850;21.698;2023-04-10T11:38:12;10.20;;;4.00;;
50309;SDS011;36207;51.850;21.698;2023-04-10T11:40:52;8.20;;;4.50;;
50309;SDS011;36207;51.850;21.698;2023-04-10T11:43:22;8.60;;;4.50;;
50309;SDS011;36207;51.850;21.698;2023-04-10T11:45:48;7.60;;;4.00;;
50309;SDS011;36207;51.850;21.698;2023-04-10T11:48:14;8.80;;;4.20;;
50309;SDS011;36207;51.850;21.698;2023-04-10T11:50:43;9.40;;;4.20;;
50309;SDS011;36207;51.850;21.698;2023-04-10T11:53:19;10.20;;;4.20;;
50309;SDS011;36207;51.850;21.698;2023-04-10T11:55:46;11.60;;;4.30;;
50309;SDS011;36207;51.850;21.698;2023-04-10T11:58:22;8.30;;;4.20;;
50309;SDS011;36207;51.850;21.698;2023-04-10T12:00:58;8.80;;;4.40;;
50309;SDS011;36207;51.850;21.698;2023-04-10T12:03:44;10.00;;;4.30;;
50309;SDS011;36207;51.850;21.698;2023-04-10T12:06:11;8.80;;;5.10;;
50309;SDS011;36207;51.850;21.698;2023-04-10T12:08:41;8.50;;;4.40;;
50309;SDS011;36207;51.850;21.698;2023-04-10T12:11:18;15.40;;;4.40;;
50309;SDS011;36207;51.850;21.698;2023-04-10T12:13:46;10.40;;;3.90;;
50309;SDS011;36207;51.850;21.698;2023-04-10T12:16:15;9.00;;;4.50;;
50309;SDS011;36207;51.850;21.698;2023-04-10T12:18:41;10.10;;;4.50;;
50309;SDS011;36207;51.850;21.698;2023-04-10T12:21:07;12.90;;;3.90;;
50309;SDS011;36207;51.850;21.698;2023-04-10T12:23:35;7.00;;;4.00;;
50309;SDS011;36207;51.850;21.698;2023-04-10T12:28:36;7.70;;;4.00;;
50309;SDS011;36207;51.850;21.698;2023-04-10T12:31:04;6.80;;;4.40;;
50309;SDS011;36207;51.850;21.698;2023-04-10T12:33:30;10.50;;;4.10;;
50309;SDS011;36207;51.850;21.698;2023-04-10T12:35:56;6.50;;;4.00;;
50309;SDS011;36207;51.850;21.698;2023-04-10T12:38:35;8.60;;;4.10;;
50309;SDS011;36207;51.850;21.698;2023-04-10T12:41:09;7.60;;;4.00;;
50309;SDS011;36207;51.850;21.698;2023-04-10T12:43:40;9.50;;;4.30;;
50309;SDS011;36207;51.850;21.698;2023-04-10T12:46:07;8.10;;;4.20;;
50309;SDS011;36207;51.850;21.698;2023-04-10T12:48:35;10.50;;;4.00;;
50309;SDS011;36207;51.850;21.698;2023-04-10T12:51:01;9.00;;;4.00;;
50309;SDS011;36207;51.850;21.698;2023-04-10T12:53:27;8.90;;;4.40;;
50309;SDS011;36207;51.850;21.698;2023-04-10T12:56:01;8.60;;;3.90;;
50309;SDS011;36207;51.850;21.698;2023-04-10T12:58:31;11.00;;;4.00;;
50309;SDS011;36207;51.850;21.698;2023-04-10T13:01:02;6.20;;;4.00;;
50309;SDS011;36207;51.850;21.698;2023-04-10T13:03:29;7.60;;;3.90;;
50309;SDS011;36207;51.850;21.698;2023-04-10T13:05:56;7.20;;;3.90;;
50309;SDS011;36207;51.850;21.698;2023-04-10T13:08:22;5.50;;;3.70;;
50309;SDS011;36207;51.850;21.698;2023-04-10T13:10:48;7.70;;;4.10;;
50309;SDS011;36207;51.850;21.698;2023-04-10T13:13:14;5.80;;;3.70;;
50309;SDS011;36207;51.850;21.698;2023-04-10T13:15:40;7.40;;;3.90;;
50309;SDS011;36207;51.850;21.698;2023-04-10T13:18:07;6.80;;;3.90;;
50309;SDS011;36207;51.850;21.698;2023-04-10T13:20:39;8.70;;;3.60;;
50309;SDS011;36207;51.850;21.698;2023-04-10T13:23:07;8.40;;;3.80;;
50309;SDS011;36207;51.850;21.698;2023-04-10T13:25:35;9.00;;;3.70;;
50309;SDS011;36207;51.850;21.698;2023-04-10T13:28:04;7.00;;;3.90;;
50309;SDS011;36207;51.850;21.698;2023-04-10T13:30:34;10.40;;;3.90;;
50309;SDS011;36207;51.850;21.698;2023-04-10T13:33:01;7.20;;;4.20;;
50309;SDS011;36207;51.850;21.698;2023-04-10T13:35:27;5.90;;;3.70;;
50309;SDS011;36207;51.850;21.698;2023-04-10T13:37:53;6.30;;;3.70;;
50309;SDS011;36207;51.850;21.698;2023-04-10T13:40:19;5.50;;;3.70;;
50309;SDS011;36207;51.850;21.698;2023-04-10T13:42:48;6.40;;;3.50;;
50309;SDS011;36207;51.850;21.698;2023-04-10T13:45:15;6.80;;;3.90;;
50309;SDS011;36207;51.850;21.698;2023-04-10T13:47:41;7.20;;;3.80;;
50309;SDS011;36207;51.850;21.698;2023-04-10T13:50:07;10.00;;;4.30;;
50309;SDS011;36207;51.850;21.698;2023-04-10T13:52:33;8.20;;;4.80;;
50309;SDS011;36207;51.850;21.698;2023-04-10T13:54:59;12.90;;;4.30;;
50309;SDS011;36207;51.850;21.698;2023-04-10T13:57:25;5.50;;;3.70;;
50309;SDS011;36207;51.850;21.698;2023-04-10T13:59:52;8.10;;;3.90;;
50309;SDS011;36207;51.850;21.698;2023-04-10T14:02:18;7.50;;;4.40;;
50309;SDS011;36207;51.850;21.698;2023-04-10T14:04:43;6.70;;;4.10;;
50309;SDS011;36207;51.850;21.698;2023-04-10T14:07:10;8.10;;;4.30;;
50309;SDS011;36207;51.850;21.698;2023-04-10T14:09:37;9.20;;;4.20;;
50309;SDS011;36207;51.850;21.698;2023-04-10T14:12:03;9.10;;;4.10;;
50309;SDS011;36207;51.850;21.698;2023-04-10T14:14:30;8.70;;;4.10;;
50309;SDS011;36207;51.850;21.698;2023-04-10T14:16:55;8.40;;;4.50;;
50309;SDS011;36207;51.850;21.698;2023-04-10T14:19:22;6.90;;;3.90;;
50309;SDS011;36207;51.850;21.698;2023-04-10T14:21:48;7.80;;;4.60;;
50309;SDS011;36207;51.850;21.698;2023-04-10T14:24:14;10.20;;;4.50;;
50309;SDS011;36207;51.850;21.698;2023-04-10T14:26:39;8.00;;;4.00;;
50309;SDS011;36207;51.850;21.698;2023-04-10T14:29:05;11.70;;;6.10;;
50309;SDS011;36207;51.850;21.698;2023-04-10T14:31:33;7.70;;;4.50;;
50309;SDS011;36207;51.850;21.698;2023-04-10T14:33:59;8.70;;;4.50;;
50309;SDS011;36207;51.850;21.698;2023-04-10T14:36:25;9.20;;;4.70;;
50309;SDS011;36207;51.850;21.698;2023-04-10T14:38:52;8.30;;;4.90;;
50309;SDS011;36207;51.850;21.698;2023-04-10T14:41:18;9.00;;;4.50;;
50309;SDS011;36207;51.850;21.698;2023-04-10T14:43:44;11.90;;;4.60;;
50309;SDS011;36207;51.850;21.698;2023-04-10T14:46:10;12.30;;;4.90;;
50309;SDS011;36207;51.850;21.698;2023-04-10T14:48:36;11.60;;;4.90;;
50309;SDS011;36207;51.850;21.698;2023-04-10T14:51:02;8.10;;;4.60;;
50309;SDS011;36207;51.850;21.698;2023-04-10T14:53:29;10.40;;;4.40;;
50309;SDS011;36207;51.850;21.698;2023-04-10T14:55:55;7.60;;;3.80;;
50309;SDS011;36207;51.850;21.698;2023-04-10T14:58:21;7.20;;;4.10;;
50309;SDS011;36207;51.850;21.698;2023-04-10T15:00:47;9.30;;;4.50;;
50309;SDS011;36207;51.850;21.698;2023-04-10T15:03:15;8.70;;;4.40;;
50309;SDS011;36207;51.850;21.698;2023-04-10T15:05:40;9.00;;;4.10;;
50309;SDS011;36207;51.850;21.698;2023-04-10T15:08:06;8.80;;;4.20;;